createdAt,value
2022-09-13T00:01:07.245Z,3.40
2022-09-13T00:03:35.345Z,3.03
2022-09-13T00:06:10.767Z,3.23
2022-09-13T00:08:39.119Z,3.37
2022-09-13T00:11:09.351Z,3.47
2022-09-13T00:13:37.169Z,3.20
2022-09-13T00:16:05.328Z,3.23
2022-09-13T00:18:34.414Z,3.37
2022-09-13T00:21:08.182Z,3.17
2022-09-13T00:23:37.030Z,3.50
2022-09-13T00:26:09.229Z,3.23
2022-09-13T00:28:37.752Z,2.90
2022-09-13T00:31:08.912Z,3.67
2022-09-13T00:33:37.196Z,3.10
2022-09-13T00:36:07.543Z,3.00
2022-09-13T00:38:37.057Z,3.53
2022-09-13T00:41:06.024Z,3.20
2022-09-13T00:43:47.479Z,3.60
2022-09-13T00:46:25.189Z,3.00
2022-09-13T00:49:02.041Z,3.07
2022-09-13T00:51:30.986Z,3.03
2022-09-13T00:54:00.560Z,3.07
2022-09-13T00:56:35.542Z,2.90
2022-09-13T00:59:11.502Z,3.33
2022-09-13T01:01:48.852Z,3.10
2022-09-13T01:04:21.476Z,3.40
2022-09-13T01:06:51.606Z,2.90
2022-09-13T01:09:19.465Z,3.30
2022-09-13T01:11:55.560Z,2.90
2022-09-13T01:14:26.008Z,3.20
2022-09-13T01:16:54.723Z,3.40
2022-09-13T01:19:22.563Z,3.23
2022-09-13T01:22:58.230Z,3.10
2022-09-13T01:26:08.933Z,3.10
2022-09-13T01:29:05.180Z,3.23
2022-09-13T01:31:41.776Z,3.07
2022-09-13T01:34:30.048Z,2.37
2022-09-13T01:37:34.095Z,3.03
2022-09-13T01:40:17.296Z,3.30
2022-09-13T01:43:05.332Z,3.00
2022-09-13T01:45:47.290Z,3.30
2022-09-13T01:48:25.895Z,3.27
2022-09-13T01:51:04.346Z,3.23
2022-09-13T01:53:44.796Z,3.40
2022-09-13T01:56:24.061Z,3.30
2022-09-13T01:58:59.142Z,3.17
2022-09-13T02:01:34.308Z,3.23
2022-09-13T02:04:10.780Z,3.50
2022-09-13T02:06:47.071Z,3.10
2022-09-13T02:09:21.779Z,3.50
2022-09-13T02:12:01.681Z,3.27
2022-09-13T02:14:36.261Z,3.33
2022-09-13T02:17:08.165Z,3.23
2022-09-13T02:19:45.393Z,2.90
2022-09-13T02:22:20.840Z,3.50
2022-09-13T02:24:56.494Z,3.17
2022-09-13T02:27:30.059Z,3.60
2022-09-13T02:30:05.453Z,3.17
2022-09-13T02:32:40.310Z,3.00
2022-09-13T02:35:20.241Z,3.00
2022-09-13T02:37:55.732Z,3.20
2022-09-13T02:40:31.491Z,3.30
2022-09-13T02:43:09.504Z,3.27
2022-09-13T02:45:49.093Z,3.70
2022-09-13T02:48:31.605Z,3.10
2022-09-13T02:51:15.091Z,3.70
2022-09-13T02:53:55.869Z,3.23
2022-09-13T02:56:35.158Z,3.60
2022-09-13T02:59:12.119Z,3.57
2022-09-13T03:01:42.773Z,4.20
2022-09-13T03:04:10.705Z,3.33
2022-09-13T03:06:42.436Z,3.90
2022-09-13T03:09:11.208Z,3.80
2022-09-13T03:12:06.098Z,4.20
2022-09-13T03:14:48.056Z,3.73
2022-09-13T03:17:36.013Z,3.80
2022-09-13T03:20:13.218Z,4.17
2022-09-13T03:23:17.586Z,5.07
2022-09-13T03:26:18.480Z,4.00
2022-09-13T03:29:03.531Z,3.70
2022-09-13T03:31:37.332Z,3.67
2022-09-13T03:34:14.434Z,4.57
2022-09-13T03:36:52.944Z,4.23
2022-09-13T03:39:35.499Z,4.53
2022-09-13T03:42:13.417Z,4.20
2022-09-13T03:44:46.745Z,3.97
2022-09-13T03:47:18.079Z,3.83
2022-09-13T03:49:46.393Z,3.73
2022-09-13T03:52:14.817Z,4.20
2022-09-13T03:54:43.940Z,4.53
2022-09-13T03:57:15.186Z,4.90
2022-09-13T03:59:47.747Z,4.63
2022-09-13T04:02:16.444Z,4.73
2022-09-13T04:04:46.240Z,4.77
2022-09-13T04:07:17.178Z,4.73
2022-09-13T04:09:46.894Z,5.13
2022-09-13T04:12:15.657Z,4.50
2022-09-13T04:14:44.166Z,4.80
2022-09-13T04:17:13.094Z,5.10
2022-09-13T04:19:42.130Z,5.37
2022-09-13T04:22:09.906Z,4.53
2022-09-13T04:24:38.774Z,5.13
2022-09-13T04:27:08.232Z,4.93
2022-09-13T04:29:36.078Z,5.47
2022-09-13T04:32:04.607Z,5.40
2022-09-13T04:34:32.375Z,4.73
2022-09-13T04:37:00.180Z,5.20
2022-09-13T04:39:28.182Z,6.53
2022-09-13T04:41:56.700Z,5.07
2022-09-13T04:44:25.836Z,5.20
2022-09-13T04:46:53.604Z,4.80
2022-09-13T04:49:21.954Z,5.00
2022-09-13T04:51:50.049Z,5.10
2022-09-13T04:54:18.745Z,8.90
2022-09-13T04:56:47.063Z,5.30
2022-09-13T04:59:15.121Z,5.47
2022-09-13T05:01:44.290Z,5.53
2022-09-13T05:04:12.324Z,7.93
2022-09-13T05:06:40.091Z,5.90
2022-09-13T05:09:07.996Z,5.60
2022-09-13T05:11:35.819Z,5.90
2022-09-13T05:14:05.734Z,6.07
2022-09-13T05:16:34.848Z,6.27
2022-09-13T05:19:04.513Z,5.73
2022-09-13T05:21:32.487Z,6.03
2022-09-13T05:24:00.548Z,5.07
2022-09-13T05:26:31.848Z,5.90
2022-09-13T05:29:00.014Z,5.40
2022-09-13T05:31:30.761Z,6.50
2022-09-13T05:34:03.312Z,7.53
2022-09-13T05:36:31.136Z,6.07
2022-09-13T05:39:31.846Z,5.93
2022-09-13T05:41:48.256Z,5.60
2022-09-13T05:44:16.006Z,5.50
2022-09-13T05:46:47.200Z,6.10
2022-09-13T05:49:16.673Z,6.00
2022-09-13T05:51:44.446Z,6.60
2022-09-13T05:54:13.762Z,6.67
2022-09-13T05:56:41.923Z,5.90
2022-09-13T05:59:14.806Z,7.57
2022-09-13T06:01:42.917Z,8.10
2022-09-13T06:04:12.501Z,8.40
2022-09-13T06:06:42.085Z,7.83
2022-09-13T06:09:13.135Z,8.77
2022-09-13T06:11:41.351Z,9.07
2022-09-13T06:14:09.365Z,9.00
2022-09-13T06:16:37.317Z,10.23
2022-09-13T06:19:05.321Z,8.90
2022-09-13T06:21:33.176Z,8.33
2022-09-13T06:24:03.859Z,9.70
2022-09-13T06:26:31.813Z,9.33
2022-09-13T06:29:00.308Z,11.53
2022-09-13T06:31:29.573Z,10.23
2022-09-13T06:33:59.773Z,10.87
2022-09-13T06:36:28.239Z,9.73
2022-09-13T06:38:56.967Z,11.37
2022-09-13T06:41:27.329Z,10.53
2022-09-13T06:43:58.533Z,9.97
2022-09-13T06:46:28.694Z,10.70
2022-09-13T06:48:59.596Z,11.17
2022-09-13T06:51:29.711Z,11.47
2022-09-13T06:53:57.961Z,9.67
2022-09-13T06:56:29.828Z,10.97
2022-09-13T06:59:00.372Z,11.43
2022-09-13T07:01:30.706Z,12.03
2022-09-13T07:04:01.569Z,11.73
2022-09-13T07:06:31.997Z,13.90
2022-09-13T07:09:02.625Z,11.93
2022-09-13T07:11:34.665Z,12.70
2022-09-13T07:14:03.159Z,12.17
2022-09-13T07:16:33.854Z,12.87
2022-09-13T07:19:05.628Z,12.07
2022-09-13T07:21:34.735Z,12.07
2022-09-13T07:24:03.436Z,11.50
2022-09-13T07:26:32.688Z,11.57
2022-09-13T07:29:02.904Z,11.87
2022-09-13T07:31:34.212Z,12.03
2022-09-13T07:34:04.757Z,12.67
2022-09-13T07:36:35.037Z,13.27
2022-09-13T07:39:04.521Z,11.50
2022-09-13T07:41:34.983Z,12.90
2022-09-13T07:44:04.596Z,11.80
2022-09-13T07:46:36.345Z,11.63
2022-09-13T07:49:04.733Z,13.40
2022-09-13T07:51:35.876Z,12.03
2022-09-13T07:54:06.630Z,12.97
2022-09-13T07:56:37.942Z,12.30
2022-09-13T07:59:11.876Z,12.23
2022-09-13T08:01:42.698Z,11.90
2022-09-13T08:04:13.816Z,11.83
2022-09-13T08:06:43.354Z,13.70
2022-09-13T08:09:12.616Z,11.77
2022-09-13T08:11:44.873Z,11.80
2022-09-13T08:14:16.479Z,11.43
2022-09-13T08:16:44.582Z,11.87
2022-09-13T08:19:15.999Z,10.83
2022-09-13T08:21:44.324Z,12.17
2022-09-13T08:24:16.839Z,11.73
2022-09-13T08:26:47.567Z,12.20
2022-09-13T08:29:17.384Z,13.10
2022-09-13T08:31:45.618Z,11.93
2022-09-13T08:34:15.457Z,11.23
2022-09-13T08:36:43.643Z,10.73
2022-09-13T08:39:13.594Z,10.83
2022-09-13T08:42:12.533Z,11.93
2022-09-13T08:44:47.232Z,11.90
2022-09-13T08:47:41.714Z,11.10
2022-09-13T08:50:18.809Z,11.07
2022-09-13T08:52:58.449Z,11.63
2022-09-13T08:55:41.521Z,10.80
2022-09-13T08:58:40.113Z,10.93
2022-09-13T09:01:19.276Z,11.10
2022-09-13T09:03:57.676Z,12.27
2022-09-13T09:06:26.269Z,11.47
2022-09-13T09:09:03.518Z,11.33
2022-09-13T09:11:40.545Z,10.33
2022-09-13T09:14:21.981Z,10.90
2022-09-13T09:16:56.423Z,10.27
2022-09-13T09:19:34.316Z,11.97
2022-09-13T09:22:12.597Z,10.90
2022-09-13T09:24:48.758Z,11.93
2022-09-13T09:27:19.347Z,10.07
2022-09-13T09:29:53.413Z,9.57
2022-09-13T09:32:52.089Z,9.80
2022-09-13T09:35:34.191Z,10.00
2022-09-13T09:38:25.185Z,9.93
2022-09-13T09:40:53.605Z,10.00
2022-09-13T09:43:29.864Z,9.27
2022-09-13T09:46:03.567Z,9.10
2022-09-13T09:48:42.567Z,8.43
2022-09-13T09:51:14.527Z,7.73
2022-09-13T09:53:50.388Z,8.27
2022-09-13T09:56:25.770Z,8.73
2022-09-13T09:58:55.930Z,8.65
2022-09-13T10:01:29.064Z,8.80
2022-09-13T10:04:08.666Z,8.10
2022-09-13T10:06:39.406Z,8.00
2022-09-13T10:09:17.787Z,8.57
2022-09-13T10:11:51.279Z,8.40
2022-09-13T10:14:36.246Z,7.90
2022-09-13T10:17:17.364Z,8.48
2022-09-13T10:19:59.315Z,8.65
2022-09-13T10:22:27.877Z,8.55
2022-09-13T10:24:56.021Z,8.45
2022-09-13T10:27:35.607Z,8.80
2022-09-13T10:30:07.065Z,8.85
2022-09-13T10:32:36.219Z,9.25
2022-09-13T10:35:18.544Z,9.80
2022-09-13T10:37:46.936Z,9.55
2022-09-13T10:40:31.146Z,9.30
2022-09-13T10:43:03.635Z,10.73
2022-09-13T10:45:33.165Z,8.80
2022-09-13T10:48:13.850Z,10.32
2022-09-13T10:50:42.174Z,9.85
2022-09-13T10:53:34.221Z,11.00
2022-09-13T10:56:03.096Z,10.70
2022-09-13T10:58:31.274Z,11.10
2022-09-13T11:01:46.431Z,10.95
2022-09-13T11:04:58.097Z,10.80
2022-09-13T11:08:00.879Z,10.95
2022-09-13T11:10:38.761Z,10.18
2022-09-13T11:13:19.118Z,11.05
2022-09-13T11:15:59.447Z,9.70
2022-09-13T11:18:49.859Z,10.67
2022-09-13T11:21:39.392Z,10.27
2022-09-13T11:24:40.275Z,10.63
2022-09-13T11:27:20.308Z,10.23
2022-09-13T11:30:06.268Z,9.60
2022-09-13T11:32:56.445Z,9.30
2022-09-13T11:35:50.959Z,9.43
2022-09-13T11:38:42.329Z,8.90
2022-09-13T11:41:29.632Z,8.57
2022-09-13T11:44:36.516Z,9.25
2022-09-13T11:47:17.037Z,10.40
2022-09-13T11:50:10.940Z,9.63
2022-09-13T11:52:58.908Z,9.93
2022-09-13T11:55:34.577Z,9.43
2022-09-13T11:58:06.842Z,9.93
2022-09-13T12:00:43.710Z,11.03
2022-09-13T12:03:24.253Z,10.87
2022-09-13T12:05:58.779Z,11.60
2022-09-13T12:08:32.985Z,11.55
2022-09-13T12:11:15.853Z,12.35
2022-09-13T12:13:52.418Z,13.10
2022-09-13T12:16:27.745Z,13.20
2022-09-13T12:19:00.969Z,19.17
2022-09-13T12:21:36.448Z,13.47
2022-09-13T12:24:14.368Z,11.70
2022-09-13T12:26:52.065Z,12.77
2022-09-13T12:29:30.363Z,12.13
2022-09-13T12:32:04.044Z,12.53
2022-09-13T12:34:44.588Z,12.40
2022-09-13T12:37:53.081Z,11.40
2022-09-13T12:40:45.466Z,12.40
2022-09-13T12:44:04.592Z,12.47
2022-09-13T12:47:04.607Z,11.07
2022-09-13T12:49:52.182Z,9.53
2022-09-13T12:52:38.068Z,8.10
2022-09-13T12:55:56.149Z,7.57
2022-09-13T12:58:58.295Z,9.60
2022-09-13T13:01:30.791Z,12.03
2022-09-13T13:04:05.317Z,11.30
2022-09-13T13:06:39.262Z,12.70
2022-09-13T13:09:28.444Z,12.23
2022-09-13T13:11:59.121Z,12.10
2022-09-13T13:14:46.446Z,12.53
2022-09-13T13:17:45.767Z,12.13
2022-09-13T13:21:06.548Z,11.73
2022-09-13T13:23:37.105Z,10.83
2022-09-13T13:26:09.803Z,11.10
2022-09-13T13:29:05.585Z,10.45
2022-09-13T13:31:40.116Z,10.13
2022-09-13T13:34:32.749Z,11.13
2022-09-13T13:37:05.291Z,10.40
2022-09-13T13:39:42.362Z,8.98
2022-09-13T13:42:26.245Z,8.43
2022-09-13T13:45:25.969Z,7.38
2022-09-13T13:48:35.334Z,7.53
2022-09-13T13:51:25.134Z,6.90
2022-09-13T13:53:59.407Z,5.85
2022-09-13T13:56:49.550Z,5.15
2022-09-13T13:59:31.633Z,5.90
2022-09-13T14:02:01.780Z,6.18
2022-09-13T14:05:09.282Z,6.30
2022-09-13T14:08:15.136Z,5.65
2022-09-13T14:10:55.789Z,5.90
2022-09-13T14:13:51.572Z,5.97
2022-09-13T14:16:38.717Z,5.72
2022-09-13T14:19:31.211Z,4.93
2022-09-13T14:22:16.878Z,4.55
2022-09-13T14:24:48.699Z,5.00
2022-09-13T14:27:21.409Z,5.03
2022-09-13T14:29:53.479Z,4.90
2022-09-13T14:32:25.498Z,5.07
2022-09-13T14:35:00.888Z,4.93
2022-09-13T14:37:36.057Z,5.60
2022-09-13T14:40:18.836Z,5.70
2022-09-13T14:42:49.782Z,4.82
2022-09-13T14:45:22.031Z,4.30
2022-09-13T14:47:58.078Z,4.35
2022-09-13T14:50:33.898Z,4.47
2022-09-13T14:53:07.055Z,4.45
2022-09-13T14:55:42.287Z,4.72
2022-09-13T14:58:22.213Z,4.90
2022-09-13T15:00:58.705Z,4.72
2022-09-13T15:03:28.237Z,4.85
2022-09-13T15:05:59.625Z,5.80
2022-09-13T15:08:45.001Z,6.10
2022-09-13T15:11:27.122Z,6.38
2022-09-13T15:14:22.063Z,7.05
2022-09-13T15:16:52.559Z,8.07
2022-09-13T15:19:41.811Z,7.50
2022-09-13T15:22:22.107Z,7.65
2022-09-13T15:24:54.815Z,7.65
2022-09-13T15:27:27.735Z,8.68
2022-09-13T15:30:00.101Z,7.63
2022-09-13T15:32:44.064Z,8.50
2022-09-13T15:35:24.170Z,8.95
2022-09-13T15:38:01.422Z,9.05
2022-09-13T15:40:43.281Z,9.35
2022-09-13T15:43:11.052Z,8.25
2022-09-13T15:45:38.945Z,8.45
2022-09-13T15:48:07.029Z,8.43
2022-09-13T15:50:37.012Z,8.13
2022-09-13T15:53:13.396Z,8.32
2022-09-13T15:55:42.675Z,8.98
2022-09-13T15:58:11.492Z,7.63
2022-09-13T16:00:39.346Z,8.15
2022-09-13T16:03:07.202Z,7.93
2022-09-13T16:05:36.488Z,7.60
2022-09-13T16:08:04.515Z,7.00
2022-09-13T16:10:32.509Z,7.20
2022-09-13T16:13:01.693Z,6.70
2022-09-13T16:15:29.838Z,5.85
2022-09-13T16:17:57.611Z,6.05
2022-09-13T16:20:27.044Z,6.35
2022-09-13T16:23:01.037Z,5.52
2022-09-13T16:25:28.943Z,5.45
2022-09-13T16:27:56.683Z,6.05
2022-09-13T16:30:27.847Z,6.80
2022-09-13T16:32:55.668Z,5.80
2022-09-13T16:35:25.346Z,5.55
2022-09-13T16:37:53.206Z,6.10
2022-09-13T16:40:21.412Z,6.00
2022-09-13T16:42:51.787Z,6.70
2022-09-13T16:45:19.843Z,6.40
2022-09-13T16:47:49.093Z,6.13
2022-09-13T16:50:17.535Z,5.93
2022-09-13T16:52:45.397Z,6.10
2022-09-13T16:55:13.911Z,6.78
2022-09-13T16:57:41.858Z,6.33
2022-09-13T17:00:11.850Z,7.22
2022-09-13T17:02:39.938Z,6.97
2022-09-13T17:05:11.015Z,6.13
2022-09-13T17:07:39.016Z,6.30
2022-09-13T17:10:09.512Z,6.30
2022-09-13T17:12:37.316Z,7.00
2022-09-13T17:15:06.543Z,6.47
2022-09-13T17:17:36.265Z,6.23
2022-09-13T17:20:09.198Z,6.03
2022-09-13T17:22:38.651Z,5.70
2022-09-13T17:25:08.840Z,5.90
2022-09-13T17:27:39.609Z,5.43
2022-09-13T17:30:09.456Z,5.70
2022-09-13T17:32:37.296Z,5.77
2022-09-13T17:35:06.341Z,5.10
2022-09-13T17:37:38.370Z,5.63
2022-09-13T17:40:08.853Z,6.37
2022-09-13T17:42:36.747Z,5.50
2022-09-13T17:45:07.549Z,5.63
2022-09-13T17:47:35.517Z,5.28
2022-09-13T17:50:03.415Z,7.00
2022-09-13T17:52:34.769Z,5.57
2022-09-13T17:55:05.547Z,5.77
2022-09-13T17:57:34.538Z,5.10
2022-09-13T18:00:03.255Z,4.90
2022-09-13T18:02:31.055Z,5.00
2022-09-13T18:05:02.251Z,4.27
2022-09-13T18:07:32.532Z,4.00
2022-09-13T18:10:00.316Z,5.60
2022-09-13T18:12:29.449Z,5.07
2022-09-13T18:14:57.287Z,4.60
2022-09-13T18:17:25.079Z,4.23
2022-09-13T18:19:52.888Z,4.43
2022-09-13T18:22:20.647Z,4.40
2022-09-13T18:24:48.393Z,3.90
2022-09-13T18:27:16.224Z,4.10
2022-09-13T18:29:45.339Z,3.57
2022-09-13T18:32:13.206Z,4.10
2022-09-13T18:34:42.149Z,4.03
2022-09-13T18:37:09.930Z,3.93
2022-09-13T18:39:38.273Z,4.00
2022-09-13T18:42:06.407Z,3.93
2022-09-13T18:44:34.164Z,4.77
2022-09-13T18:47:05.262Z,3.93
2022-09-13T18:49:33.036Z,4.03
2022-09-13T18:52:00.901Z,4.60
2022-09-13T18:54:28.736Z,4.47
2022-09-13T18:56:57.338Z,4.40
2022-09-13T18:59:25.115Z,4.67
2022-09-13T19:01:53.225Z,4.90
2022-09-13T19:04:22.453Z,4.33
2022-09-13T19:06:53.527Z,5.10
2022-09-13T19:09:22.823Z,4.60
2022-09-13T19:11:54.683Z,4.73
2022-09-13T19:14:25.532Z,5.73
2022-09-13T19:16:56.374Z,6.00
2022-09-13T19:19:25.690Z,4.77
2022-09-13T19:21:56.778Z,5.10
2022-09-13T19:24:24.880Z,4.80
2022-09-13T19:26:54.019Z,5.50
2022-09-13T19:29:26.756Z,5.30
2022-09-13T19:31:56.047Z,5.57
2022-09-13T19:34:25.343Z,5.33
2022-09-13T19:36:57.978Z,5.17
2022-09-13T19:39:29.535Z,5.67
2022-09-13T19:41:58.527Z,5.43
2022-09-13T19:44:26.443Z,5.90
2022-09-13T19:47:23.693Z,5.33
2022-09-13T19:49:43.807Z,7.23
2022-09-13T19:52:13.017Z,5.67
2022-09-13T19:54:40.904Z,5.77
2022-09-13T19:57:10.009Z,5.60
2022-09-13T19:59:37.791Z,5.87
2022-09-13T20:02:06.138Z,6.10
2022-09-13T20:04:37.242Z,5.97
2022-09-13T20:07:12.059Z,6.10
2022-09-13T20:09:44.129Z,4.47
2022-09-13T20:12:12.596Z,4.57
2022-09-13T20:14:40.541Z,4.00
2022-09-13T20:17:11.415Z,4.87
2022-09-13T20:19:44.786Z,5.27
2022-09-13T20:22:24.254Z,4.67
2022-09-13T20:24:57.619Z,3.60
2022-09-13T20:27:37.278Z,3.47
2022-09-13T20:30:11.628Z,3.13
2022-09-13T20:32:42.947Z,3.20
2022-09-13T20:35:15.662Z,3.27
2022-09-13T20:37:51.629Z,2.70
2022-09-13T20:40:25.613Z,2.73
2022-09-13T20:43:05.140Z,6.77
2022-09-13T20:45:45.046Z,3.13
2022-09-13T20:48:20.978Z,3.13
2022-09-13T20:51:16.455Z,2.80
2022-09-13T20:54:03.618Z,2.40
2022-09-13T20:56:33.901Z,2.57
2022-09-13T20:59:07.286Z,2.27
2022-09-13T21:01:40.066Z,2.33
2022-09-13T21:04:10.605Z,2.47
2022-09-13T21:07:13.692Z,2.37
2022-09-13T21:09:45.551Z,2.70
2022-09-13T21:12:16.007Z,2.30
2022-09-13T21:14:46.511Z,2.20
2022-09-13T21:17:25.656Z,2.37
2022-09-13T21:19:56.316Z,2.13
2022-09-13T21:22:28.448Z,2.00
2022-09-13T21:25:25.794Z,2.40
2022-09-13T21:27:57.135Z,2.30
2022-09-13T21:30:32.937Z,2.40
2022-09-13T21:33:04.294Z,2.30
2022-09-13T21:35:51.936Z,2.20
2022-09-13T21:38:25.030Z,2.23
2022-09-13T21:41:05.185Z,2.30
2022-09-13T21:43:40.064Z,3.10
2022-09-13T21:46:31.413Z,2.10
2022-09-13T21:49:10.234Z,2.13
2022-09-13T21:51:48.188Z,2.03
2022-09-13T21:54:21.754Z,2.33
2022-09-13T21:56:55.512Z,1.93
2022-09-13T21:59:25.071Z,2.10
2022-09-13T22:01:55.058Z,2.10
2022-09-13T22:04:27.517Z,2.50
2022-09-13T22:06:56.692Z,1.67
2022-09-13T22:09:29.710Z,2.30
2022-09-13T22:11:59.036Z,2.03
2022-09-13T22:14:27.499Z,2.30
2022-09-13T22:16:57.855Z,2.10
2022-09-13T22:19:28.081Z,2.00
2022-09-13T22:22:01.622Z,1.73
2022-09-13T22:24:31.982Z,2.00
2022-09-13T22:27:01.314Z,1.80
2022-09-13T22:29:30.071Z,2.00
2022-09-13T22:31:57.899Z,1.77
2022-09-13T22:34:30.655Z,1.67
2022-09-13T22:36:58.529Z,1.83
2022-09-13T22:39:26.378Z,1.77
2022-09-13T22:41:54.179Z,2.03
2022-09-13T22:44:23.278Z,2.00
2022-09-13T22:46:51.053Z,2.13
2022-09-13T22:49:20.643Z,1.93
2022-09-13T22:51:49.246Z,2.07
2022-09-13T22:54:19.557Z,1.80
2022-09-13T22:56:47.817Z,2.37
2022-09-13T22:59:18.843Z,1.57
2022-09-13T23:01:48.669Z,1.93
2022-09-13T23:04:17.177Z,1.90
2022-09-13T23:06:47.580Z,2.43
2022-09-13T23:09:18.695Z,1.83
2022-09-13T23:11:47.867Z,2.63
2022-09-13T23:14:23.506Z,2.00
2022-09-13T23:16:53.141Z,2.20
2022-09-13T23:19:25.612Z,2.60
2022-09-13T23:21:54.504Z,2.67
2022-09-13T23:24:24.114Z,2.93
2022-09-13T23:26:54.600Z,2.53
2022-09-13T23:29:24.296Z,2.90
2022-09-13T23:31:52.520Z,2.57
2022-09-13T23:34:20.655Z,3.30
2022-09-13T23:36:48.509Z,1.93
2022-09-13T23:39:19.057Z,2.20
2022-09-13T23:41:49.312Z,2.70
2022-09-13T23:44:17.732Z,2.10
2022-09-13T23:46:46.812Z,2.43
2022-09-13T23:49:14.756Z,2.17
2022-09-13T23:51:43.060Z,2.20
2022-09-13T23:54:12.780Z,2.63
2022-09-13T23:56:40.711Z,2.37
2022-09-13T23:59:08.739Z,2.40
